createdAt,value
2017-05-22T00:01:50.688Z,13.50
2017-05-22T00:04:19.010Z,13.50
2017-05-22T00:06:47.293Z,13.40
2017-05-22T00:09:15.608Z,13.30
2017-05-22T00:11:43.905Z,13.30
2017-05-22T00:14:12.239Z,13.20
2017-05-22T00:16:40.572Z,13.20
2017-05-22T00:19:08.871Z,13.10
2017-05-22T00:21:37.395Z,13.10
2017-05-22T00:24:05.723Z,13.10
2017-05-22T00:26:34.016Z,13.20
2017-05-22T00:29:02.299Z,13.20
2017-05-22T00:31:30.623Z,13.20
2017-05-22T00:33:58.950Z,13.20
2017-05-22T00:36:27.231Z,13.10
2017-05-22T00:38:55.512Z,13.10
2017-05-22T00:41:23.843Z,13.00
2017-05-22T00:43:52.127Z,13.00
2017-05-22T00:46:20.460Z,13.00
2017-05-22T00:48:48.738Z,13.00
2017-05-22T00:51:17.048Z,13.00
2017-05-22T00:53:45.387Z,13.00
2017-05-22T00:56:13.686Z,13.00
2017-05-22T00:58:41.973Z,12.90
2017-05-22T01:01:10.540Z,13.00
2017-05-22T01:03:39.140Z,12.90
2017-05-22T01:06:07.434Z,12.90
2017-05-22T01:08:35.757Z,12.90
2017-05-22T01:11:04.036Z,12.90
2017-05-22T01:13:32.364Z,12.90
2017-05-22T01:16:00.651Z,12.90
2017-05-22T01:18:28.939Z,12.80
2017-05-22T01:20:57.267Z,12.70
2017-05-22T01:23:25.547Z,12.70
2017-05-22T01:25:53.840Z,12.70
2017-05-22T01:28:22.151Z,12.70
2017-05-22T01:30:50.447Z,12.70
2017-05-22T01:33:18.759Z,12.60
2017-05-22T01:35:47.091Z,12.60
2017-05-22T01:38:15.374Z,12.60
2017-05-22T01:40:43.668Z,12.60
2017-05-22T01:43:11.982Z,12.60
2017-05-22T01:45:40.276Z,12.60
2017-05-22T01:48:08.595Z,12.50
2017-05-22T01:50:36.892Z,12.50
2017-05-22T01:53:05.185Z,12.50
2017-05-22T01:55:33.511Z,12.50
2017-05-22T01:58:01.803Z,12.50
2017-05-22T02:00:30.090Z,12.50
2017-05-22T02:02:58.414Z,12.40
2017-05-22T02:05:26.700Z,12.40
2017-05-22T02:07:54.997Z,12.40
2017-05-22T02:10:23.323Z,12.30
2017-05-22T02:12:51.620Z,12.30
2017-05-22T02:15:19.906Z,12.30
2017-05-22T02:17:48.246Z,12.20
2017-05-22T02:20:16.539Z,12.20
2017-05-22T02:22:44.826Z,12.20
2017-05-22T02:25:13.494Z,12.20
2017-05-22T02:27:41.787Z,12.10
2017-05-22T02:30:10.078Z,12.10
2017-05-22T02:32:38.417Z,12.00
2017-05-22T02:35:06.713Z,12.00
2017-05-22T02:37:35.014Z,12.00
2017-05-22T02:40:03.349Z,12.00
2017-05-22T02:42:31.644Z,12.00
2017-05-22T02:44:59.948Z,12.00
2017-05-22T02:47:28.281Z,11.90
2017-05-22T02:49:56.566Z,11.80
2017-05-22T02:52:24.911Z,11.80
2017-05-22T02:54:53.256Z,11.80
2017-05-22T02:57:21.806Z,11.80
2017-05-22T02:59:50.109Z,11.80
2017-05-22T03:02:18.438Z,11.70
2017-05-22T03:04:46.778Z,11.70
2017-05-22T03:07:15.077Z,11.80
2017-05-22T03:09:43.374Z,11.70
2017-05-22T03:12:12.070Z,11.70
2017-05-22T03:14:40.358Z,11.70
2017-05-22T03:17:08.948Z,11.70
2017-05-22T03:19:37.294Z,11.60
2017-05-22T03:22:05.592Z,11.60
2017-05-22T03:24:33.905Z,11.60
2017-05-22T03:27:02.219Z,11.60
2017-05-22T03:29:30.507Z,11.60
2017-05-22T03:31:58.834Z,11.60
2017-05-22T03:34:27.139Z,11.60
2017-05-22T03:36:55.428Z,11.60
2017-05-22T03:39:23.767Z,11.60
2017-05-22T03:41:52.064Z,11.60
2017-05-22T03:44:20.350Z,11.60
2017-05-22T03:46:48.692Z,11.70
2017-05-22T03:49:16.996Z,11.70
2017-05-22T03:51:45.282Z,11.70
2017-05-22T03:54:13.619Z,11.70
2017-05-22T03:56:41.926Z,11.80
2017-05-22T03:59:10.220Z,11.80
2017-05-22T04:01:38.565Z,11.80
2017-05-22T04:04:06.870Z,11.80
2017-05-22T04:06:35.160Z,11.80
2017-05-22T04:09:03.501Z,11.90
2017-05-22T04:11:31.793Z,11.80
2017-05-22T04:14:00.099Z,11.80
2017-05-22T04:16:28.715Z,11.80
2017-05-22T04:18:57.016Z,11.80
2017-05-22T04:21:25.314Z,11.80
2017-05-22T04:23:53.957Z,11.80
2017-05-22T04:26:22.538Z,11.80
2017-05-22T04:28:50.066Z,11.80
2017-05-22T04:31:18.684Z,12.00
2017-05-22T04:33:47.374Z,12.00
2017-05-22T04:36:15.670Z,12.00
2017-05-22T04:38:43.959Z,12.10
2017-05-22T04:41:12.314Z,12.10
2017-05-22T04:43:40.617Z,12.20
2017-05-22T04:46:08.921Z,12.20
2017-05-22T04:48:37.270Z,12.30
2017-05-22T04:51:05.580Z,12.30
2017-05-22T04:53:33.875Z,12.40
2017-05-22T04:56:02.208Z,12.40
2017-05-22T04:58:30.545Z,12.50
2017-05-22T05:00:58.844Z,12.60
2017-05-22T05:03:27.133Z,12.70
2017-05-22T05:05:55.469Z,12.80
2017-05-22T05:08:23.811Z,12.90
2017-05-22T05:10:52.112Z,13.10
2017-05-22T05:13:20.407Z,13.10
2017-05-22T05:15:48.761Z,13.30
2017-05-22T05:18:17.061Z,13.40
2017-05-22T05:20:45.408Z,13.50
2017-05-22T05:23:13.691Z,13.70
2017-05-22T05:25:41.989Z,13.80
2017-05-22T05:28:10.329Z,14.00
2017-05-22T05:30:38.628Z,14.20
2017-05-22T05:33:06.911Z,14.30
2017-05-22T05:35:35.245Z,14.50
2017-05-22T05:38:03.535Z,14.60
2017-05-22T05:40:31.879Z,14.70
2017-05-22T05:43:00.220Z,14.80
2017-05-22T05:45:30.000Z,14.90
2017-05-22T05:47:58.328Z,15.00
2017-05-22T05:50:26.635Z,15.10
2017-05-22T05:52:56.934Z,15.20
2017-05-22T05:55:25.243Z,15.30
2017-05-22T05:57:53.544Z,15.40
2017-05-22T06:00:21.886Z,15.50
2017-05-22T06:02:50.180Z,15.60
2017-05-22T06:05:18.487Z,15.60
2017-05-22T06:07:46.822Z,15.70
2017-05-22T06:10:15.370Z,15.70
2017-05-22T06:12:43.691Z,15.70
2017-05-22T06:15:12.133Z,15.70
2017-05-22T06:17:40.420Z,15.90
2017-05-22T06:20:08.750Z,16.00
2017-05-22T06:22:37.071Z,16.00
2017-05-22T06:25:05.423Z,16.00
2017-05-22T06:27:33.728Z,16.20
2017-05-22T06:30:02.074Z,16.30
2017-05-22T06:32:30.377Z,16.40
2017-05-22T06:34:58.675Z,16.50
2017-05-22T06:37:27.022Z,16.60
2017-05-22T06:39:55.948Z,16.60
2017-05-22T06:42:24.243Z,16.60
2017-05-22T06:44:52.572Z,16.40
2017-05-22T06:47:20.859Z,16.40
2017-05-22T06:49:49.152Z,16.40
2017-05-22T06:52:17.491Z,16.50
2017-05-22T06:54:45.787Z,16.50
2017-05-22T06:57:14.105Z,16.60
2017-05-22T06:59:42.434Z,16.80
2017-05-22T07:02:11.045Z,16.90
2017-05-22T07:04:39.402Z,17.00
2017-05-22T07:07:08.057Z,17.10
2017-05-22T07:09:37.570Z,17.10
2017-05-22T07:12:06.821Z,17.20
2017-05-22T07:14:35.973Z,17.30
2017-05-22T07:17:05.262Z,17.30
2017-05-22T07:19:34.510Z,17.30
2017-05-22T07:22:04.139Z,17.50
2017-05-22T07:24:33.418Z,17.50
2017-05-22T07:27:02.564Z,17.60
2017-05-22T07:29:31.799Z,17.60
2017-05-22T07:32:01.043Z,17.60
2017-05-22T07:34:30.175Z,17.60
2017-05-22T07:36:59.470Z,17.70
2017-05-22T07:39:28.626Z,17.80
2017-05-22T07:41:57.874Z,17.80
2017-05-22T07:44:27.002Z,18.00
2017-05-22T07:46:56.247Z,18.10
2017-05-22T07:49:25.490Z,18.20
2017-05-22T07:51:54.642Z,18.20
2017-05-22T07:54:24.382Z,18.30
2017-05-22T07:56:53.957Z,18.30
2017-05-22T07:59:23.238Z,18.30
2017-05-22T08:01:52.341Z,18.40
2017-05-22T08:04:21.624Z,18.60
2017-05-22T08:06:50.788Z,18.50
2017-05-22T08:09:20.129Z,18.60
2017-05-22T08:11:51.168Z,18.60
2017-05-22T08:14:20.299Z,18.70
2017-05-22T08:16:49.560Z,18.70
2017-05-22T08:19:19.136Z,18.70
2017-05-22T08:21:48.320Z,18.80
2017-05-22T08:24:16.761Z,18.80
2017-05-22T08:26:45.057Z,18.90
2017-05-22T08:29:18.352Z,19.00
2017-05-22T08:31:49.573Z,19.10
2017-05-22T08:34:18.745Z,19.00
2017-05-22T08:36:49.617Z,19.10
2017-05-22T08:39:18.077Z,19.20
2017-05-22T08:41:46.385Z,19.20
2017-05-22T08:44:14.681Z,19.30
2017-05-22T08:46:43.064Z,19.30
2017-05-22T08:49:11.375Z,19.40
2017-05-22T08:51:39.663Z,19.50
2017-05-22T08:54:07.986Z,19.50
2017-05-22T08:56:36.270Z,19.50
2017-05-22T08:59:04.578Z,19.60
2017-05-22T09:01:32.912Z,19.70
2017-05-22T09:04:01.195Z,19.80
2017-05-22T09:06:29.492Z,19.70
2017-05-22T09:08:57.824Z,19.70
2017-05-22T09:11:26.139Z,19.80
2017-05-22T09:13:54.421Z,19.80
2017-05-22T09:16:22.768Z,19.80
2017-05-22T09:18:51.292Z,19.80
2017-05-22T09:21:19.586Z,20.00
2017-05-22T09:23:47.911Z,20.20
2017-05-22T09:26:15.431Z,20.20
2017-05-22T09:28:43.710Z,20.10
2017-05-22T09:31:12.055Z,20.10
2017-05-22T09:33:40.354Z,20.00
2017-05-22T09:36:08.644Z,20.00
2017-05-22T09:38:36.983Z,20.20
2017-05-22T09:41:05.615Z,20.40
2017-05-22T09:43:33.904Z,20.50
2017-05-22T09:46:02.442Z,20.60
2017-05-22T09:48:30.737Z,20.70
2017-05-22T09:50:59.044Z,20.70
2017-05-22T09:53:27.372Z,20.90
2017-05-22T09:55:55.666Z,21.00
2017-05-22T09:58:24.018Z,21.00
2017-05-22T10:00:52.347Z,21.00
2017-05-22T10:03:20.641Z,21.00
2017-05-22T10:05:48.932Z,21.00
2017-05-22T10:08:17.279Z,21.00
2017-05-22T10:10:45.575Z,21.10
2017-05-22T10:13:13.870Z,21.10
2017-05-22T10:15:42.234Z,21.30
2017-05-22T10:18:10.534Z,21.60
2017-05-22T10:20:38.814Z,21.70
2017-05-22T10:23:07.174Z,21.90
2017-05-22T10:25:35.689Z,22.10
2017-05-22T10:28:03.971Z,22.00
2017-05-22T10:30:32.324Z,22.00
2017-05-22T10:33:00.613Z,21.90
2017-05-22T10:35:28.904Z,21.90
2017-05-22T10:37:57.248Z,21.90
2017-05-22T10:40:25.795Z,21.90
2017-05-22T10:42:54.078Z,21.80
2017-05-22T10:45:22.428Z,21.60
2017-05-22T10:47:50.953Z,21.40
2017-05-22T10:50:19.249Z,21.30
2017-05-22T10:52:47.587Z,21.30
2017-05-22T10:55:15.886Z,21.10
2017-05-22T10:57:44.450Z,21.20
2017-05-22T11:00:12.776Z,21.30
2017-05-22T11:02:41.052Z,21.30
2017-05-22T11:05:09.343Z,21.40
2017-05-22T11:07:37.676Z,21.60
2017-05-22T11:10:05.971Z,21.60
2017-05-22T11:12:34.274Z,21.90
2017-05-22T11:15:02.598Z,22.00
2017-05-22T11:17:30.887Z,22.30
2017-05-22T11:19:59.176Z,22.50
2017-05-22T11:22:27.507Z,22.80
2017-05-22T11:24:55.793Z,22.90
2017-05-22T11:27:24.108Z,22.80
2017-05-22T11:29:52.450Z,22.90
2017-05-22T11:32:20.739Z,22.90
2017-05-22T11:34:49.033Z,22.80
2017-05-22T11:37:17.364Z,22.90
2017-05-22T11:39:45.651Z,23.00
2017-05-22T11:42:13.942Z,23.10
2017-05-22T11:44:42.280Z,23.00
2017-05-22T11:47:10.907Z,23.10
2017-05-22T11:49:39.196Z,23.30
2017-05-22T11:52:07.531Z,23.10
2017-05-22T11:54:35.812Z,23.00
2017-05-22T11:57:04.095Z,23.10
2017-05-22T11:59:32.433Z,23.20
2017-05-22T12:02:00.728Z,23.20
2017-05-22T12:04:29.014Z,23.10
2017-05-22T12:06:57.349Z,23.30
2017-05-22T12:09:25.647Z,23.70
2017-05-22T12:11:53.943Z,23.90
2017-05-22T12:14:22.284Z,24.00
2017-05-22T12:16:50.562Z,24.30
2017-05-22T12:19:18.848Z,24.40
2017-05-22T12:21:47.179Z,23.60
2017-05-22T12:24:15.468Z,23.00
2017-05-22T12:26:43.776Z,23.00
2017-05-22T12:29:12.332Z,23.00
2017-05-22T12:31:40.620Z,23.30
2017-05-22T12:34:08.911Z,23.80
2017-05-22T12:36:37.570Z,23.70
2017-05-22T12:39:05.867Z,23.70
2017-05-22T12:41:34.149Z,23.50
2017-05-22T12:44:02.473Z,23.70
2017-05-22T12:46:30.000Z,23.70
2017-05-22T12:48:58.298Z,24.30
2017-05-22T12:51:26.631Z,24.40
2017-05-22T12:53:55.202Z,24.80
2017-05-22T12:56:23.499Z,24.80
2017-05-22T12:58:51.850Z,24.80
2017-05-22T13:01:20.144Z,24.60
2017-05-22T13:03:48.452Z,24.30
2017-05-22T13:06:16.790Z,24.20
2017-05-22T13:08:45.084Z,24.40
2017-05-22T13:11:13.386Z,24.80
2017-05-22T13:13:41.742Z,25.30
2017-05-22T13:16:10.044Z,25.60
2017-05-22T13:18:38.336Z,26.00
2017-05-22T13:21:06.676Z,25.70
2017-05-22T13:23:36.289Z,25.30
2017-05-22T13:26:04.851Z,24.90
2017-05-22T13:28:33.140Z,24.90
2017-05-22T13:31:01.467Z,25.00
2017-05-22T13:33:29.786Z,25.30
2017-05-22T13:35:58.364Z,26.00
2017-05-22T13:38:26.646Z,26.60
2017-05-22T13:40:55.224Z,26.60
2017-05-22T13:43:23.511Z,26.50
2017-05-22T13:45:51.814Z,26.10
2017-05-22T13:48:20.152Z,25.80
2017-05-22T13:50:48.446Z,25.20
2017-05-22T13:53:16.727Z,25.20
2017-05-22T13:55:45.060Z,26.60
2017-05-22T13:58:13.517Z,27.80
2017-05-22T14:00:41.814Z,28.70
2017-05-22T14:03:10.165Z,29.30
2017-05-22T14:05:37.692Z,29.20
2017-05-22T14:08:05.985Z,30.00
2017-05-22T14:10:34.319Z,29.90
2017-05-22T14:13:02.632Z,30.20
2017-05-22T14:15:30.926Z,30.30
2017-05-22T14:17:59.291Z,30.90
2017-05-22T14:20:27.577Z,31.30
2017-05-22T14:22:55.869Z,31.60
2017-05-22T14:25:24.207Z,32.00
2017-05-22T14:27:55.856Z,32.00
2017-05-22T14:30:24.458Z,32.60
2017-05-22T14:32:52.760Z,32.30
2017-05-22T14:35:21.043Z,31.90
2017-05-22T14:37:49.368Z,32.00
2017-05-22T14:40:17.664Z,32.00
2017-05-22T14:42:45.953Z,32.60
2017-05-22T14:45:14.280Z,33.00
2017-05-22T14:47:42.570Z,32.20
2017-05-22T14:50:11.176Z,32.50
2017-05-22T14:52:39.760Z,32.60
2017-05-22T14:55:08.083Z,30.70
2017-05-22T14:57:36.403Z,30.40
2017-05-22T15:00:04.755Z,29.20
2017-05-22T15:02:33.050Z,28.90
2017-05-22T15:05:01.335Z,29.80
2017-05-22T15:07:29.665Z,30.70
2017-05-22T15:09:57.948Z,31.10
2017-05-22T15:12:26.243Z,31.90
2017-05-22T15:14:54.572Z,32.10
2017-05-22T15:17:22.878Z,32.00
2017-05-22T15:19:51.202Z,32.00
2017-05-22T15:22:19.798Z,32.10
2017-05-22T15:24:48.089Z,32.60
2017-05-22T15:27:16.428Z,32.70
2017-05-22T15:29:44.715Z,33.10
2017-05-22T15:32:13.010Z,32.50
2017-05-22T15:34:41.338Z,32.70
2017-05-22T15:37:09.640Z,33.10
2017-05-22T15:39:37.928Z,33.20
2017-05-22T15:42:06.256Z,33.30
2017-05-22T15:44:34.549Z,33.30
2017-05-22T15:47:03.180Z,34.10
2017-05-22T15:49:30.759Z,34.00
2017-05-22T15:51:59.050Z,34.70
2017-05-22T15:54:27.918Z,35.30
2017-05-22T15:56:56.227Z,35.60
2017-05-22T15:59:24.573Z,36.10
2017-05-22T16:01:52.850Z,36.00
2017-05-22T16:04:21.140Z,34.80
2017-05-22T16:06:49.542Z,33.70
2017-05-22T16:09:17.874Z,32.70
2017-05-22T16:11:46.388Z,32.70
2017-05-22T16:14:16.056Z,32.80
2017-05-22T16:16:46.570Z,32.90
2017-05-22T16:19:15.264Z,32.30
2017-05-22T16:21:43.561Z,32.50
2017-05-22T16:24:11.848Z,33.40
2017-05-22T16:26:40.198Z,33.50
2017-05-22T16:29:08.483Z,34.20
2017-05-22T16:31:37.074Z,34.10
2017-05-22T16:34:05.408Z,35.30
2017-05-22T16:36:33.709Z,36.20
2017-05-22T16:39:02.318Z,36.10
2017-05-22T16:41:30.602Z,36.40
2017-05-22T16:43:58.939Z,35.80
2017-05-22T16:46:27.230Z,36.20
2017-05-22T16:48:55.528Z,37.10
2017-05-22T16:51:23.861Z,38.10
2017-05-22T16:53:52.487Z,38.60
2017-05-22T16:56:21.411Z,38.90
2017-05-22T16:58:49.735Z,39.20
2017-05-22T17:01:18.232Z,39.30
2017-05-22T17:03:46.827Z,38.90
2017-05-22T17:06:15.114Z,38.70
2017-05-22T17:08:43.495Z,39.50
2017-05-22T17:11:11.821Z,40.20
2017-05-22T17:13:40.117Z,40.00
2017-05-22T17:16:08.467Z,38.60
2017-05-22T17:18:36.770Z,38.10
2017-05-22T17:21:05.065Z,37.30
2017-05-22T17:23:33.653Z,37.50
2017-05-22T17:26:02.180Z,37.50
2017-05-22T17:28:30.475Z,37.00
2017-05-22T17:30:58.812Z,36.80
2017-05-22T17:33:27.105Z,36.60
2017-05-22T17:35:55.417Z,36.70
2017-05-22T17:38:23.744Z,36.00
2017-05-22T17:40:52.089Z,35.00
2017-05-22T17:43:20.417Z,34.70
2017-05-22T17:45:48.864Z,35.20
2017-05-22T17:48:17.330Z,35.70
2017-05-22T17:50:46.058Z,36.10
2017-05-22T17:53:14.354Z,36.40
2017-05-22T17:55:42.883Z,36.40
2017-05-22T17:58:11.226Z,36.40
2017-05-22T18:00:39.529Z,36.40
2017-05-22T18:03:08.273Z,36.10
2017-05-22T18:05:36.598Z,35.80
2017-05-22T18:08:04.122Z,35.80
2017-05-22T18:10:32.475Z,33.20
2017-05-22T18:13:00.808Z,31.80
2017-05-22T18:15:29.100Z,30.10
2017-05-22T18:17:57.410Z,28.80
2017-05-22T18:20:25.757Z,28.10
2017-05-22T18:22:54.334Z,27.50
2017-05-22T18:25:22.629Z,27.20
2017-05-22T18:27:50.979Z,27.10
2017-05-22T18:30:19.571Z,26.90
2017-05-22T18:32:47.871Z,26.90
2017-05-22T18:35:16.201Z,26.70
2017-05-22T18:37:44.489Z,26.30
2017-05-22T18:40:13.504Z,26.20
2017-05-22T18:42:43.241Z,25.90
2017-05-22T18:45:14.134Z,25.50
2017-05-22T18:47:43.875Z,25.20
2017-05-22T18:50:13.423Z,24.90
2017-05-22T18:52:42.153Z,24.50
2017-05-22T18:55:10.499Z,24.20
2017-05-22T18:57:38.785Z,24.10
2017-05-22T19:00:07.153Z,23.90
2017-05-22T19:02:35.605Z,23.70
2017-05-22T19:05:05.061Z,23.50
2017-05-22T19:07:33.396Z,23.20
2017-05-22T19:10:02.599Z,22.80
2017-05-22T19:12:30.958Z,22.60
2017-05-22T19:14:59.295Z,22.40
2017-05-22T19:17:27.716Z,22.30
2017-05-22T19:19:56.117Z,22.20
2017-05-22T19:22:24.502Z,22.10
2017-05-22T19:24:52.901Z,22.00
2017-05-22T19:27:21.288Z,21.70
2017-05-22T19:29:49.878Z,21.60
2017-05-22T19:32:18.222Z,21.50
2017-05-22T19:34:46.528Z,21.40
2017-05-22T19:37:14.867Z,21.30
2017-05-22T19:39:43.503Z,21.10
2017-05-22T19:42:11.935Z,20.90
2017-05-22T19:44:40.320Z,20.90
2017-05-22T19:47:08.738Z,20.80
2017-05-22T19:49:37.104Z,20.70
2017-05-22T19:52:05.963Z,20.60
2017-05-22T19:54:34.412Z,20.50
2017-05-22T19:57:03.201Z,20.50
2017-05-22T19:59:31.879Z,20.40
2017-05-22T20:02:00.252Z,20.30
2017-05-22T20:04:28.944Z,20.30
2017-05-22T20:06:57.273Z,20.10
2017-05-22T20:09:25.612Z,20.00
2017-05-22T20:11:54.024Z,20.00
2017-05-22T20:14:22.388Z,19.90
2017-05-22T20:16:51.075Z,19.80
2017-05-22T20:19:19.431Z,19.70
2017-05-22T20:21:47.733Z,19.60
2017-05-22T20:24:16.095Z,19.50
2017-05-22T20:26:44.650Z,19.40
2017-05-22T20:29:12.934Z,19.30
2017-05-22T20:31:41.284Z,19.20
2017-05-22T20:34:09.566Z,19.20
2017-05-22T20:36:37.867Z,19.20
2017-05-22T20:39:06.192Z,19.10
2017-05-22T20:41:34.530Z,19.10
2017-05-22T20:44:02.819Z,19.10
2017-05-22T20:46:31.124Z,19.00
2017-05-22T20:48:59.460Z,19.00
2017-05-22T20:51:27.761Z,18.90
2017-05-22T20:53:56.284Z,18.80
2017-05-22T20:56:24.900Z,18.70
2017-05-22T20:58:53.200Z,18.70
2017-05-22T21:01:21.483Z,18.50
2017-05-22T21:03:49.831Z,18.50
2017-05-22T21:06:18.125Z,18.40
2017-05-22T21:08:46.413Z,18.30
2017-05-22T21:11:14.750Z,18.20
2017-05-22T21:13:43.046Z,18.20
2017-05-22T21:16:11.395Z,18.10
2017-05-22T21:18:39.707Z,18.10
2017-05-22T21:21:08.009Z,18.00
2017-05-22T21:23:36.309Z,17.90
2017-05-22T21:26:04.648Z,17.80
2017-05-22T21:28:33.211Z,17.80
2017-05-22T21:31:01.539Z,17.80
2017-05-22T21:33:29.823Z,17.70
2017-05-22T21:35:58.121Z,17.70
2017-05-22T21:38:26.456Z,17.60
2017-05-22T21:40:54.751Z,17.50
2017-05-22T21:43:23.045Z,17.40
2017-05-22T21:45:51.390Z,17.40
2017-05-22T21:48:19.730Z,17.40
2017-05-22T21:50:48.037Z,17.40
2017-05-22T21:53:16.365Z,17.30
2017-05-22T21:55:44.652Z,17.30
2017-05-22T21:58:12.997Z,17.30
2017-05-22T22:00:41.292Z,17.20
2017-05-22T22:03:09.595Z,17.10
2017-05-22T22:05:37.919Z,17.00
2017-05-22T22:08:06.213Z,17.00
2017-05-22T22:10:34.499Z,16.90
2017-05-22T22:13:02.827Z,16.80
2017-05-22T22:15:31.110Z,16.80
2017-05-22T22:17:59.409Z,16.80
2017-05-22T22:20:27.730Z,16.70
2017-05-22T22:22:56.014Z,16.70
2017-05-22T22:25:24.604Z,16.60
2017-05-22T22:27:52.945Z,16.60
2017-05-22T22:30:21.569Z,16.60
2017-05-22T22:32:49.844Z,16.50
2017-05-22T22:35:18.170Z,16.50
2017-05-22T22:37:46.446Z,16.40
2017-05-22T22:40:14.733Z,16.30
2017-05-22T22:42:43.060Z,16.20
2017-05-22T22:45:11.635Z,16.10
2017-05-22T22:47:39.920Z,16.10
2017-05-22T22:50:08.247Z,16.00
2017-05-22T22:52:36.551Z,16.00
2017-05-22T22:55:04.845Z,16.00
2017-05-22T22:57:33.192Z,15.90
2017-05-22T23:00:01.480Z,15.90
2017-05-22T23:02:29.778Z,15.90
2017-05-22T23:04:58.132Z,15.80
2017-05-22T23:07:26.424Z,15.70
2017-05-22T23:09:54.721Z,15.70
2017-05-22T23:12:23.048Z,15.60
2017-05-22T23:14:51.346Z,15.60
2017-05-22T23:17:19.636Z,15.50
2017-05-22T23:19:47.980Z,15.50
2017-05-22T23:22:16.266Z,15.50
2017-05-22T23:24:44.615Z,15.40
2017-05-22T23:27:12.965Z,15.30
2017-05-22T23:29:41.262Z,15.30
2017-05-22T23:32:09.571Z,15.30
2017-05-22T23:34:37.904Z,15.20
2017-05-22T23:37:06.197Z,15.20
2017-05-22T23:39:34.489Z,15.20
2017-05-22T23:42:02.812Z,15.20
2017-05-22T23:44:31.100Z,15.20
2017-05-22T23:46:59.384Z,15.10
2017-05-22T23:49:27.707Z,15.10
2017-05-22T23:51:55.991Z,15.10
2017-05-22T23:54:24.283Z,15.00
2017-05-22T23:56:52.620Z,15.00
2017-05-22T23:59:20.906Z,15.00
